createdAt,value
2018-07-24T00:00:58.018Z,583.9
2018-07-24T00:02:00.200Z,583.7
2018-07-24T00:03:02.070Z,583.7
2018-07-24T00:04:04.525Z,583.6
2018-07-24T00:05:06.961Z,584.2
2018-07-24T00:06:09.136Z,584.3
2018-07-24T00:07:11.589Z,584.7
2018-07-24T00:08:13.736Z,584.3
2018-07-24T00:09:16.180Z,584.5
2018-07-24T00:10:18.370Z,584.7
2018-07-24T00:11:20.548Z,584.6
2018-07-24T00:12:22.986Z,584.9
2018-07-24T00:13:25.161Z,584.8
2018-07-24T00:14:27.607Z,584.7
2018-07-24T00:15:29.760Z,584.6
2018-07-24T00:16:32.196Z,584.8
2018-07-24T00:17:34.645Z,584.9
2018-07-24T00:18:37.091Z,584.7
2018-07-24T00:19:39.259Z,584.5
2018-07-24T00:20:41.698Z,584.5
2018-07-24T00:21:44.139Z,584.6
2018-07-24T00:22:46.036Z,585
2018-07-24T00:23:48.476Z,584.8
2018-07-24T00:24:50.644Z,584.4
2018-07-24T00:25:52.261Z,584.9
2018-07-24T00:26:54.439Z,585
2018-07-24T00:27:56.885Z,584.8
2018-07-24T00:28:59.351Z,584.8
2018-07-24T00:30:01.253Z,584.8
2018-07-24T00:31:03.690Z,584.7
2018-07-24T00:32:06.402Z,585.2
2018-07-24T00:33:08.574Z,585.4
2018-07-24T00:34:10.743Z,585.1
2018-07-24T00:35:12.631Z,585.2
2018-07-24T00:36:14.539Z,585.4
2018-07-24T00:37:16.752Z,585.5
2018-07-24T00:38:19.197Z,585.5
2018-07-24T00:39:21.367Z,585.5
2018-07-24T00:40:23.808Z,585.4
2018-07-24T00:41:26.240Z,585.3
2018-07-24T00:42:28.672Z,585.2
2018-07-24T00:43:30.854Z,585.3
2018-07-24T00:44:32.470Z,585.4
2018-07-24T00:45:34.924Z,585
2018-07-24T00:46:37.354Z,585.2
2018-07-24T00:47:39.893Z,585.1
2018-07-24T00:48:42.070Z,585.4
2018-07-24T00:49:44.244Z,585.3
2018-07-24T00:50:46.688Z,585.3
2018-07-24T00:51:49.133Z,585.4
2018-07-24T00:52:51.299Z,585.6
2018-07-24T00:53:53.467Z,585.3
2018-07-24T00:54:55.910Z,585.8
2018-07-24T00:55:58.345Z,585.5
2018-07-24T00:57:00.502Z,586
2018-07-24T00:58:02.668Z,585.9
2018-07-24T00:59:05.109Z,585.9
2018-07-24T01:00:06.992Z,586.4
2018-07-24T01:01:09.167Z,585.9
2018-07-24T01:02:11.078Z,586.1
2018-07-24T01:03:12.960Z,586.2
2018-07-24T01:04:15.406Z,586.5
2018-07-24T01:05:17.549Z,586.1
2018-07-24T01:06:19.709Z,586.6
2018-07-24T01:07:21.877Z,586.5
2018-07-24T01:08:24.051Z,586.5
2018-07-24T01:09:26.511Z,586.1
2018-07-24T01:10:28.958Z,586.2
2018-07-24T01:11:31.128Z,586.5
2018-07-24T01:12:33.563Z,586.9
2018-07-24T01:13:35.736Z,587
2018-07-24T01:14:38.180Z,587.1
2018-07-24T01:15:40.617Z,586.9
2018-07-24T01:16:43.057Z,587
2018-07-24T01:17:45.249Z,587.2
2018-07-24T01:18:47.697Z,586.7
2018-07-24T01:19:50.141Z,587.2
2018-07-24T01:20:52.309Z,586.9
2018-07-24T01:21:54.197Z,586.7
2018-07-24T01:22:56.087Z,587
2018-07-24T01:23:58.259Z,586.8
2018-07-24T01:24:59.922Z,586.8
2018-07-24T01:26:02.357Z,586.9
2018-07-24T01:27:04.257Z,586.8
2018-07-24T01:28:05.884Z,586.8
2018-07-24T01:29:08.336Z,587.3
2018-07-24T01:30:10.772Z,587.2
2018-07-24T01:31:12.955Z,587.4
2018-07-24T01:32:15.128Z,587.3
2018-07-24T01:33:17.592Z,587.2
2018-07-24T01:34:19.754Z,587.3
2018-07-24T01:35:22.202Z,587.5
2018-07-24T01:36:24.656Z,587.8
2018-07-24T01:37:26.835Z,587.7
2018-07-24T01:38:29.023Z,587.8
2018-07-24T01:39:30.940Z,587.6
2018-07-24T01:40:33.406Z,587.6
2018-07-24T01:41:35.844Z,587.2
2018-07-24T01:42:38.019Z,587.3
2018-07-24T01:43:40.206Z,587.3
2018-07-24T01:44:42.390Z,586.8
2018-07-24T01:45:44.561Z,587
2018-07-24T01:46:47.006Z,587
2018-07-24T01:47:49.172Z,586.8
2018-07-24T01:48:51.373Z,586.8
2018-07-24T01:49:53.549Z,587.2
2018-07-24T01:50:55.696Z,586.8
2018-07-24T01:51:57.566Z,587.2
2018-07-24T01:53:00.007Z,587.3
2018-07-24T01:54:02.448Z,587.4
2018-07-24T01:55:04.613Z,587.4
2018-07-24T01:56:06.792Z,587.5
2018-07-24T01:57:08.965Z,587.3
2018-07-24T01:58:11.133Z,587.3
2018-07-24T01:59:13.584Z,587.3
2018-07-24T02:00:15.465Z,587.2
2018-07-24T02:01:17.366Z,587.2
2018-07-24T02:02:19.811Z,586.9
2018-07-24T02:03:22.267Z,587
2018-07-24T02:04:24.708Z,587
2018-07-24T02:05:27.157Z,587.1
2018-07-24T02:06:29.340Z,586.9
2018-07-24T02:07:31.811Z,587
2018-07-24T02:08:34.269Z,586.9
2018-07-24T02:09:36.719Z,586.9
2018-07-24T02:10:39.165Z,587.3
2018-07-24T02:11:41.095Z,587.2
2018-07-24T02:12:43.539Z,587.2
2018-07-24T02:13:45.719Z,587.2
2018-07-24T02:14:47.871Z,587.4
2018-07-24T02:15:49.762Z,587.3
2018-07-24T02:16:52.208Z,587.3
2018-07-24T02:17:54.656Z,587.6
2018-07-24T02:18:57.096Z,587.6
2018-07-24T02:19:59.277Z,587.3
2018-07-24T02:21:01.732Z,587.3
2018-07-24T02:22:04.185Z,587.3
2018-07-24T02:23:06.627Z,587.4
2018-07-24T02:24:09.074Z,587.3
2018-07-24T02:25:11.517Z,587.1
2018-07-24T02:26:13.687Z,587.1
2018-07-24T02:27:15.826Z,587.1
2018-07-24T02:28:17.983Z,587.5
2018-07-24T02:29:20.124Z,587.4
2018-07-24T02:30:22.585Z,587.2
2018-07-24T02:31:25.083Z,587.7
2018-07-24T02:32:27.256Z,587.6
2018-07-24T02:33:29.739Z,588.1
2018-07-24T02:34:32.229Z,587.8
2018-07-24T02:35:34.386Z,588.2
2018-07-24T02:36:36.016Z,588.2
2018-07-24T02:37:38.456Z,588.1
2018-07-24T02:38:40.651Z,588.2
2018-07-24T02:39:42.577Z,588.2
2018-07-24T02:40:44.752Z,588.2
2018-07-24T02:41:47.193Z,588
2018-07-24T02:42:49.079Z,588
2018-07-24T02:43:51.245Z,588.1
2018-07-24T02:44:53.422Z,588.3
2018-07-24T02:45:55.323Z,588
2018-07-24T02:46:57.810Z,588.3
2018-07-24T02:47:59.986Z,588.1
2018-07-24T02:49:02.451Z,588.3
2018-07-24T02:50:04.639Z,588.5
2018-07-24T02:51:06.817Z,588
2018-07-24T02:52:08.738Z,588.4
2018-07-24T02:53:11.180Z,588.4
2018-07-24T02:54:13.100Z,588.1
2018-07-24T02:55:15.540Z,588.3
2018-07-24T02:56:17.729Z,588.5
2018-07-24T02:57:19.898Z,588.8
2018-07-24T02:58:22.063Z,588.6
2018-07-24T02:59:24.523Z,588.6
2018-07-24T03:00:26.962Z,588.9
2018-07-24T03:01:28.602Z,589.4
2018-07-24T03:02:31.050Z,589.1
2018-07-24T03:03:33.222Z,589.3
2018-07-24T03:04:35.125Z,589.5
2018-07-24T03:05:37.287Z,589.4
2018-07-24T03:06:39.227Z,589.1
2018-07-24T03:07:41.401Z,589.5
2018-07-24T03:08:43.852Z,589.4
2018-07-24T03:09:46.037Z,589.2
2018-07-24T03:10:48.483Z,589.2
2018-07-24T03:11:50.381Z,589.4
2018-07-24T03:12:52.826Z,589
2018-07-24T03:13:55.268Z,589.8
2018-07-24T03:14:57.442Z,589.4
2018-07-24T03:15:59.894Z,589.3
2018-07-24T03:17:02.069Z,589.4
2018-07-24T03:18:03.704Z,589.6
2018-07-24T03:19:06.173Z,590.1
2018-07-24T03:20:08.352Z,590.2
2018-07-24T03:21:10.541Z,590.5
2018-07-24T03:22:12.996Z,590.7
2018-07-24T03:23:15.426Z,590.7
2018-07-24T03:24:17.622Z,590.5
2018-07-24T03:25:19.807Z,590.6
2018-07-24T03:26:21.981Z,590.3
2018-07-24T03:27:24.150Z,590.4
2018-07-24T03:28:26.591Z,590.5
2018-07-24T03:29:28.483Z,590.2
2018-07-24T03:30:30.936Z,590.1
2018-07-24T03:31:33.100Z,590.4
2018-07-24T03:32:35.552Z,590.6
2018-07-24T03:33:38.038Z,590.6
2018-07-24T03:34:40.481Z,590.8
2018-07-24T03:35:42.941Z,591.2
2018-07-24T03:36:45.385Z,590.7
2018-07-24T03:37:47.846Z,590.9
2018-07-24T03:38:50.008Z,590.7
2018-07-24T03:39:52.189Z,591
2018-07-24T03:40:54.092Z,591
2018-07-24T03:41:56.258Z,590.9
2018-07-24T03:42:58.155Z,590.9
2018-07-24T03:44:00.609Z,590.9
2018-07-24T03:45:02.988Z,590.6
2018-07-24T03:46:05.449Z,591
2018-07-24T03:47:07.908Z,590.6
2018-07-24T03:48:10.081Z,590.7
2018-07-24T03:49:12.248Z,590.7
2018-07-24T03:50:14.427Z,591
2018-07-24T03:51:16.598Z,591
2018-07-24T03:52:19.036Z,590.9
2018-07-24T03:53:20.390Z,590.8
2018-07-24T03:54:22.561Z,590.5
2018-07-24T03:55:25.017Z,590.8
2018-07-24T03:56:27.206Z,591.1
2018-07-24T03:57:29.658Z,591
2018-07-24T03:58:31.846Z,591
2018-07-24T03:59:34.000Z,590.7
2018-07-24T04:00:36.453Z,590.8
2018-07-24T04:01:38.346Z,591
2018-07-24T04:02:40.538Z,590.7
2018-07-24T04:03:42.450Z,590.8
2018-07-24T04:04:44.331Z,590.8
2018-07-24T04:05:46.237Z,591.2
2018-07-24T04:06:48.421Z,590.8
2018-07-24T04:07:50.558Z,591
2018-07-24T04:08:52.732Z,590.7
2018-07-24T04:09:54.919Z,591.3
2018-07-24T04:10:57.376Z,590.9
2018-07-24T04:11:59.556Z,590.7
2018-07-24T04:13:01.736Z,590.7
2018-07-24T04:14:04.191Z,591.1
2018-07-24T04:15:06.627Z,590.8
2018-07-24T04:16:08.235Z,590.9
2018-07-24T04:17:10.419Z,590.7
2018-07-24T04:18:12.589Z,590.7
2018-07-24T04:19:14.761Z,590.7
2018-07-24T04:20:16.937Z,590.5
2018-07-24T04:21:19.119Z,590.6
2018-07-24T04:22:21.029Z,590.7
2018-07-24T04:23:23.482Z,590.6
2018-07-24T04:24:25.646Z,590.2
2018-07-24T04:25:27.818Z,590.5
2018-07-24T04:26:30.275Z,590.7
2018-07-24T04:27:32.732Z,590.4
2018-07-24T04:28:35.184Z,590.4
2018-07-24T04:29:37.107Z,590.5
2018-07-24T04:30:38.811Z,590.3
2018-07-24T04:31:41.244Z,590.7
2018-07-24T04:32:43.219Z,590.5
2018-07-24T04:33:45.479Z,590.8
2018-07-24T04:34:47.666Z,590.9
2018-07-24T04:35:49.831Z,590.8
2018-07-24T04:36:52.280Z,590.8
2018-07-24T04:37:54.732Z,590.8
2018-07-24T04:38:57.181Z,590.9
2018-07-24T04:39:59.548Z,591
2018-07-24T04:41:01.754Z,591.2
2018-07-24T04:42:03.651Z,590.9
2018-07-24T04:43:05.814Z,591.6
2018-07-24T04:44:08.261Z,591.1
2018-07-24T04:45:10.416Z,591.2
2018-07-24T04:46:12.564Z,591.3
2018-07-24T04:47:15.017Z,591.3
2018-07-24T04:48:17.459Z,591.4
2018-07-24T04:49:19.904Z,591.5
2018-07-24T04:50:22.053Z,591.9
2018-07-24T04:51:24.517Z,591.9
2018-07-24T04:52:26.403Z,591.5
2018-07-24T04:53:28.844Z,591.4
2018-07-24T04:54:31.031Z,591.3
2018-07-24T04:55:32.655Z,591.5
2018-07-24T04:56:34.842Z,591.5
2018-07-24T04:57:37.293Z,591.4
2018-07-24T04:58:39.753Z,591.5
2018-07-24T04:59:42.208Z,591.3
2018-07-24T05:00:44.396Z,591.6
2018-07-24T05:01:46.552Z,591.5
2018-07-24T05:02:48.733Z,591.3
2018-07-24T05:03:50.901Z,591.2
2018-07-24T05:04:53.337Z,591.3
2018-07-24T05:05:55.273Z,591.1
2018-07-24T05:06:57.178Z,591.2
2018-07-24T05:07:59.355Z,591.2
2018-07-24T05:09:01.804Z,591.3
2018-07-24T05:10:04.255Z,590.9
2018-07-24T05:11:06.440Z,590.9
2018-07-24T05:12:07.834Z,591.3
2018-07-24T05:13:10.030Z,591.4
2018-07-24T05:14:12.193Z,590.8
2018-07-24T05:15:14.110Z,590.9
2018-07-24T05:16:16.554Z,591
2018-07-24T05:17:18.161Z,591.1
2018-07-24T05:18:20.045Z,590.8
2018-07-24T05:19:22.503Z,591.5
2018-07-24T05:20:24.415Z,591.3
2018-07-24T05:21:26.875Z,591.1
2018-07-24T05:22:28.548Z,591
2018-07-24T05:23:30.931Z,590.6
2018-07-24T05:24:32.855Z,590.9
2018-07-24T05:25:35.331Z,590.9
2018-07-24T05:26:37.501Z,590.8
2018-07-24T05:27:39.966Z,590.7
2018-07-24T05:28:41.852Z,590.8
2018-07-24T05:29:44.288Z,590.6
2018-07-24T05:30:46.481Z,591
2018-07-24T05:31:48.670Z,590.9
2018-07-24T05:32:51.149Z,590.7
2018-07-24T05:33:53.318Z,590.4
2018-07-24T05:34:55.198Z,590.8
2018-07-24T05:35:57.671Z,590.5
2018-07-24T05:36:59.857Z,590.5
2018-07-24T05:38:02.309Z,590.2
2018-07-24T05:39:04.747Z,590
2018-07-24T05:40:06.914Z,590.3
2018-07-24T05:41:08.541Z,590.1
2018-07-24T05:42:10.711Z,589.9
2018-07-24T05:43:13.159Z,590
2018-07-24T05:44:15.617Z,589.6
2018-07-24T05:45:17.789Z,590.1
2018-07-24T05:46:19.688Z,590.1
2018-07-24T05:47:22.127Z,589.7
2018-07-24T05:48:24.580Z,589.9
2018-07-24T05:49:27.024Z,589.6
2018-07-24T05:50:29.219Z,589.8
2018-07-24T05:51:31.398Z,589.6
2018-07-24T05:52:33.566Z,589.1
2018-07-24T05:53:35.756Z,589
2018-07-24T05:54:37.899Z,589.1
2018-07-24T05:55:40.089Z,589
2018-07-24T05:56:42.548Z,589
2018-07-24T05:57:44.741Z,589.1
2018-07-24T05:58:46.910Z,589.2
2018-07-24T05:59:49.356Z,589.1
2018-07-24T06:00:51.800Z,589
2018-07-24T06:01:54.213Z,588.8
2018-07-24T06:02:56.670Z,588.8
2018-07-24T06:03:59.105Z,588.8
2018-07-24T06:05:01.284Z,589.1
2018-07-24T06:06:03.195Z,589
2018-07-24T06:07:05.101Z,588.8
2018-07-24T06:08:07.561Z,589
2018-07-24T06:09:09.742Z,589.1
2018-07-24T06:10:12.189Z,589.1
2018-07-24T06:11:14.359Z,589.3
2018-07-24T06:12:16.542Z,589.3
2018-07-24T06:13:19.268Z,589.5
2018-07-24T06:14:21.611Z,589.4
2018-07-24T06:15:24.046Z,589.4
2018-07-24T06:16:26.220Z,589.8
2018-07-24T06:17:28.584Z,589.5
2018-07-24T06:18:30.544Z,589.7
2018-07-24T06:19:32.999Z,589.9
2018-07-24T06:20:35.448Z,590
2018-07-24T06:21:37.900Z,589.9
2018-07-24T06:22:40.067Z,589.9
2018-07-24T06:23:42.476Z,590.2
2018-07-24T06:24:44.947Z,589.8
2018-07-24T06:25:47.386Z,590.2
2018-07-24T06:26:49.834Z,590.3
2018-07-24T06:27:51.745Z,589.9
2018-07-24T06:28:54.211Z,589.7
2018-07-24T06:29:56.379Z,590.2
2018-07-24T06:30:58.272Z,590
2018-07-24T06:32:00.750Z,590
2018-07-24T06:33:02.662Z,590.3
2018-07-24T06:34:04.839Z,590.3
2018-07-24T06:35:07.696Z,590.4
2018-07-24T06:36:09.904Z,589.9
2018-07-24T06:37:12.086Z,590.8
2018-07-24T06:38:14.272Z,590.6
2018-07-24T06:39:16.422Z,590.4
2018-07-24T06:40:18.869Z,590.7
2018-07-24T06:41:20.785Z,590.5
2018-07-24T06:42:23.233Z,590.2
2018-07-24T06:43:25.693Z,590.2
2018-07-24T06:44:28.295Z,590
2018-07-24T06:45:30.478Z,590.2
2018-07-24T06:46:32.927Z,590.4
2018-07-24T06:47:35.396Z,590.4
2018-07-24T06:48:37.852Z,591
2018-07-24T06:49:40.034Z,590.2
2018-07-24T06:50:42.494Z,590.8
2018-07-24T06:51:45.609Z,590.5
2018-07-24T06:52:48.128Z,590.6
2018-07-24T06:53:50.305Z,590.3
2018-07-24T06:54:52.487Z,590.3
2018-07-24T06:55:54.653Z,590.5
2018-07-24T06:56:56.841Z,590.4
2018-07-24T06:57:59.025Z,590.3
2018-07-24T06:59:01.597Z,590.3
2018-07-24T07:00:03.839Z,590.7
2018-07-24T07:01:06.075Z,590.9
2018-07-24T07:02:08.900Z,590.4
2018-07-24T07:03:11.072Z,590.3
2018-07-24T07:04:13.284Z,590.6
2018-07-24T07:05:16.029Z,590.6
2018-07-24T07:06:18.181Z,590.6
2018-07-24T07:07:20.631Z,590.4
2018-07-24T07:08:22.822Z,591.1
2018-07-24T07:09:25.269Z,590.5
2018-07-24T07:10:27.163Z,590.4
2018-07-24T07:11:29.600Z,590.6
2018-07-24T07:12:32.043Z,590.3
2018-07-24T07:13:34.237Z,590.7
2018-07-24T07:14:36.684Z,590.6
2018-07-24T07:15:38.857Z,590.6
2018-07-24T07:16:41.041Z,590.7
2018-07-24T07:17:42.952Z,590.5
2018-07-24T07:18:45.128Z,591.2
2018-07-24T07:19:47.572Z,590.9
2018-07-24T07:20:49.762Z,591.2
2018-07-24T07:21:52.216Z,591
2018-07-24T07:22:54.666Z,590.8
2018-07-24T07:23:57.115Z,591.3
2018-07-24T07:24:59.263Z,591.4
2018-07-24T07:26:00.922Z,591.1
2018-07-24T07:27:03.371Z,591.7
2018-07-24T07:28:05.806Z,591.3
2018-07-24T07:29:08.687Z,591.6
2018-07-24T07:30:10.865Z,591.6
2018-07-24T07:31:13.029Z,591.7
2018-07-24T07:32:15.089Z,591.6
2018-07-24T07:33:17.594Z,591.9
2018-07-24T07:34:19.494Z,592.1
2018-07-24T07:35:21.671Z,592
2018-07-24T07:36:23.839Z,592.3
2018-07-24T07:37:26.296Z,592.1
2018-07-24T07:38:28.734Z,592.2
2018-07-24T07:39:31.181Z,592.3
2018-07-24T07:40:33.370Z,592.3
2018-07-24T07:41:35.559Z,591.9
2018-07-24T07:42:37.470Z,592.1
2018-07-24T07:43:39.917Z,592.3
2018-07-24T07:44:42.100Z,592.2
2018-07-24T07:45:44.548Z,592.1
2018-07-24T07:46:46.729Z,591.9
2018-07-24T07:47:49.171Z,592.1
2018-07-24T07:48:51.632Z,592
2018-07-24T07:49:54.207Z,592.2
2018-07-24T07:50:56.391Z,591.7
2018-07-24T07:51:58.939Z,592
2018-07-24T07:53:00.964Z,591.9
2018-07-24T07:54:03.555Z,592.2
2018-07-24T07:55:06.016Z,591.6
2018-07-24T07:56:08.491Z,591.7
2018-07-24T07:57:10.163Z,591.8
2018-07-24T07:58:12.371Z,592.1
2018-07-24T07:59:14.825Z,591.9
2018-07-24T08:00:17.045Z,592.1
2018-07-24T08:01:19.260Z,592.3
2018-07-24T08:02:21.561Z,592.2
2018-07-24T08:03:24.001Z,592.1
2018-07-24T08:04:27.116Z,592.3
2018-07-24T08:05:28.963Z,592.3
2018-07-24T08:06:31.147Z,592.3
2018-07-24T08:07:33.610Z,592.4
2018-07-24T08:08:35.772Z,592.9
2018-07-24T08:09:37.714Z,592.9
2018-07-24T08:10:40.160Z,592.7
2018-07-24T08:11:42.080Z,592.7
2018-07-24T08:12:44.536Z,592.6
2018-07-24T08:13:46.988Z,592.7
2018-07-24T08:14:49.143Z,592.6
2018-07-24T08:15:51.337Z,592.9
2018-07-24T08:16:53.782Z,592.8
2018-07-24T08:17:56.238Z,592.5
2018-07-24T08:18:58.413Z,592.8
2018-07-24T08:20:00.581Z,592.5
2018-07-24T08:21:02.771Z,592.9
2018-07-24T08:22:04.950Z,592.8
2018-07-24T08:23:06.854Z,593.1
2018-07-24T08:24:09.301Z,593
2018-07-24T08:25:11.198Z,593.3
2018-07-24T08:26:13.387Z,593.4
2018-07-24T08:27:15.566Z,593.4
2018-07-24T08:28:18.074Z,593.4
2018-07-24T08:29:20.224Z,593.3
2018-07-24T08:30:22.368Z,593.3
2018-07-24T08:31:24.564Z,593.1
2018-07-24T08:32:27.014Z,593.4
2018-07-24T08:33:29.276Z,593.4
2018-07-24T08:34:31.739Z,593.6
2018-07-24T08:35:34.186Z,593.9
2018-07-24T08:36:36.638Z,593.4
2018-07-24T08:37:39.088Z,593.9
2018-07-24T08:38:41.276Z,594
2018-07-24T08:39:43.778Z,593.9
2018-07-24T08:40:45.962Z,593.6
2018-07-24T08:41:48.152Z,593.8
2018-07-24T08:42:50.297Z,593.6
2018-07-24T08:43:52.483Z,593.9
2018-07-24T08:44:54.851Z,593.4
2018-07-24T08:45:57.012Z,593.2
2018-07-24T08:46:58.885Z,593.7
2018-07-24T08:48:01.494Z,593.6
2018-07-24T08:49:03.473Z,593.6
2018-07-24T08:50:05.348Z,593.5
2018-07-24T08:51:07.270Z,593.5
2018-07-24T08:52:09.161Z,593.5
2018-07-24T08:53:12.467Z,593.9
2018-07-24T08:54:16.416Z,593.8
2018-07-24T08:55:21.353Z,593.8
2018-07-24T08:56:22.792Z,594
2018-07-24T08:57:24.969Z,593.7
2018-07-24T08:58:27.433Z,594
2018-07-24T08:59:29.609Z,594.2
2018-07-24T09:00:31.965Z,594.3
2018-07-24T09:01:34.411Z,594.6
2018-07-24T09:02:36.860Z,594.5
2018-07-24T09:03:38.902Z,594.9
2018-07-24T09:04:41.365Z,594.4
2018-07-24T09:05:43.251Z,594.7
2018-07-24T09:06:45.133Z,594.7
2018-07-24T09:07:47.036Z,594.6
2018-07-24T09:08:49.189Z,595
2018-07-24T09:09:51.639Z,594.9
2018-07-24T09:10:53.821Z,594.8
2018-07-24T09:11:56.277Z,595.2
2018-07-24T09:12:58.715Z,595.1
2018-07-24T09:14:00.591Z,595.1
2018-07-24T09:15:02.482Z,595.1
2018-07-24T09:16:04.658Z,595.1
2018-07-24T09:17:07.121Z,595
2018-07-24T09:18:09.584Z,595
2018-07-24T09:19:12.048Z,595.5
2018-07-24T09:20:14.504Z,595.4
2018-07-24T09:21:16.958Z,595.5
2018-07-24T09:22:19.125Z,595.4
2018-07-24T09:23:21.580Z,595.7
2018-07-24T09:24:24.031Z,595.7
2018-07-24T09:25:26.211Z,595.6
2018-07-24T09:26:28.122Z,595.7
2018-07-24T09:27:30.316Z,595.6
2018-07-24T09:28:32.773Z,595.6
2018-07-24T09:29:34.967Z,595.9
2018-07-24T09:30:37.147Z,595.3
2018-07-24T09:31:39.596Z,595.5
2018-07-24T09:32:42.041Z,596
2018-07-24T09:33:44.238Z,595.6
2018-07-24T09:34:46.429Z,595.8
2018-07-24T09:35:48.867Z,595.7
2018-07-24T09:36:51.320Z,595.9
2018-07-24T09:37:53.769Z,595.3
2018-07-24T09:38:56.215Z,595.5
2018-07-24T09:39:58.668Z,595.2
2018-07-24T09:41:01.122Z,595.7
2018-07-24T09:42:03.303Z,595.4
2018-07-24T09:43:05.507Z,595.8
2018-07-24T09:44:07.951Z,596
2018-07-24T09:45:10.414Z,595.9
2018-07-24T09:46:12.607Z,595.9
2018-07-24T09:47:14.778Z,595.9
2018-07-24T09:48:17.246Z,595.7
2018-07-24T09:49:19.681Z,596
2018-07-24T09:50:22.145Z,596.3
2018-07-24T09:51:24.594Z,595.8
2018-07-24T09:52:27.069Z,596.3
2018-07-24T09:53:29.266Z,596.3
2018-07-24T09:54:31.721Z,596.6
2018-07-24T09:55:34.178Z,596.7
2018-07-24T09:56:36.363Z,596.5
2018-07-24T09:57:38.811Z,596.5
2018-07-24T09:58:40.691Z,597.1
2018-07-24T09:59:42.885Z,596.6
2018-07-24T10:00:45.064Z,596.9
2018-07-24T10:01:46.960Z,596.8
2018-07-24T10:02:49.420Z,597
2018-07-24T10:03:51.861Z,596.9
2018-07-24T10:04:54.312Z,596.6
2018-07-24T10:05:56.532Z,596.8
2018-07-24T10:06:58.956Z,597.1
2018-07-24T10:08:01.418Z,596.5
2018-07-24T10:09:03.401Z,596.9
2018-07-24T10:10:05.883Z,597.1
2018-07-24T10:11:08.654Z,597.4
2018-07-24T10:12:11.400Z,597.2
2018-07-24T10:13:14.037Z,597
2018-07-24T10:14:16.025Z,597.3
2018-07-24T10:15:18.180Z,597.1
2018-07-24T10:16:20.635Z,597.3
2018-07-24T10:17:23.119Z,597.5
2018-07-24T10:18:25.286Z,597.7
2018-07-24T10:19:27.469Z,597.7
2018-07-24T10:20:29.674Z,597.7
2018-07-24T10:21:32.134Z,597.6
2018-07-24T10:22:34.314Z,598
2018-07-24T10:23:36.225Z,598
2018-07-24T10:24:37.867Z,597.6
2018-07-24T10:25:39.764Z,598.7
2018-07-24T10:26:41.947Z,598.5
2018-07-24T10:27:44.119Z,598.5
2018-07-24T10:28:46.567Z,598.3
2018-07-24T10:29:49.022Z,598.7
2018-07-24T10:30:51.209Z,598.9
2018-07-24T10:31:53.406Z,599
2018-07-24T10:32:55.600Z,599.2
2018-07-24T10:33:58.092Z,599.1
2018-07-24T10:35:00.009Z,599.1
2018-07-24T10:36:02.197Z,598.6
2018-07-24T10:37:04.634Z,598.7
2018-07-24T10:38:06.807Z,599.2
2018-07-24T10:39:08.995Z,599.1
2018-07-24T10:40:10.893Z,599.3
2018-07-24T10:41:12.809Z,599.3
2018-07-24T10:42:14.991Z,599.6
2018-07-24T10:43:17.487Z,599.7
2018-07-24T10:44:19.941Z,599.7
2018-07-24T10:45:21.858Z,600
2018-07-24T10:46:24.311Z,599.6
2018-07-24T10:47:26.763Z,599.9
2018-07-24T10:48:28.935Z,600.1
2018-07-24T10:49:31.120Z,600.7
2018-07-24T10:50:33.581Z,600.5
2018-07-24T10:51:36.044Z,600.5
2018-07-24T10:52:38.213Z,600.4
2018-07-24T10:53:40.704Z,600.7
2018-07-24T10:54:43.144Z,600.8
2018-07-24T10:55:45.332Z,600.1
2018-07-24T10:56:47.529Z,600.1
2018-07-24T10:57:49.988Z,600.3
2018-07-24T10:58:52.162Z,600.4
2018-07-24T10:59:54.399Z,600.3
2018-07-24T11:00:56.949Z,600.4
2018-07-24T11:01:59.208Z,600.3
2018-07-24T11:03:01.478Z,600.6
2018-07-24T11:04:03.985Z,600.8
2018-07-24T11:05:06.608Z,600.9
2018-07-24T11:06:09.090Z,601.3
2018-07-24T11:07:10.732Z,600.9
2018-07-24T11:08:13.213Z,601.2
2018-07-24T11:09:15.395Z,601.3
2018-07-24T11:10:17.314Z,601.2
2018-07-24T11:11:19.780Z,601
2018-07-24T11:12:22.224Z,601.3
2018-07-24T11:13:24.416Z,601.4
2018-07-24T11:14:26.306Z,601.7
2018-07-24T11:15:28.481Z,601.5
2018-07-24T11:16:30.749Z,601.7
2018-07-24T11:17:33.018Z,601.9
2018-07-24T11:18:35.468Z,601.8
2018-07-24T11:19:37.646Z,602.3
2018-07-24T11:20:40.120Z,601.9
2018-07-24T11:21:41.998Z,602
2018-07-24T11:22:45.591Z,602.3
2018-07-24T11:23:47.966Z,602.4
2018-07-24T11:24:50.137Z,602.4
2018-07-24T11:25:52.617Z,602.5
2018-07-24T11:26:55.084Z,602.7
2018-07-24T11:27:56.965Z,602.2
2018-07-24T11:28:59.432Z,602.8
2018-07-24T11:30:01.894Z,602.5
2018-07-24T11:31:04.356Z,602.5
2018-07-24T11:32:06.840Z,602.9
2018-07-24T11:33:10.196Z,602.9
2018-07-24T11:34:12.139Z,602.7
2018-07-24T11:35:14.619Z,602.5
2018-07-24T11:36:17.395Z,602.7
2018-07-24T11:37:19.920Z,603.3
2018-07-24T11:38:22.403Z,603.1
2018-07-24T11:39:24.882Z,603.2
2018-07-24T11:40:27.064Z,603.1
2018-07-24T11:41:28.992Z,603.2
2018-07-24T11:42:31.463Z,603.2
2018-07-24T11:44:50.736Z,603.1
2018-07-24T11:45:52.922Z,603.5
2018-07-24T11:46:55.385Z,603.6
2018-07-24T11:47:57.847Z,603.7
2018-07-24T11:49:00.312Z,603.9
2018-07-24T11:50:02.786Z,603.8
2018-07-24T11:51:05.265Z,604
2018-07-24T11:52:07.727Z,604
2018-07-24T11:53:09.916Z,604.4
2018-07-24T11:54:12.373Z,604.5
2018-07-24T11:55:14.536Z,604.6
2018-07-24T11:56:16.424Z,604.4
2018-07-24T11:57:18.612Z,604.6
2018-07-24T11:58:20.801Z,604.3
2018-07-24T11:59:23.281Z,604.7
2018-07-24T12:00:25.209Z,604.8
2018-07-24T12:01:27.387Z,604.6
2018-07-24T12:02:29.561Z,604.5
2018-07-24T12:03:32.318Z,604.6
2018-07-24T12:04:34.500Z,604.3
2018-07-24T12:05:36.999Z,604.6
2018-07-24T12:06:39.170Z,605
2018-07-24T12:07:41.736Z,604.6
2018-07-24T12:08:44.187Z,604.7
2018-07-24T12:09:46.359Z,604.7
2018-07-24T12:10:48.829Z,605.4
2018-07-24T12:11:51.027Z,605.3
2018-07-24T12:12:53.485Z,605.5
2018-07-24T12:13:55.674Z,605.1
2018-07-24T12:14:58.956Z,605.2
2018-07-24T12:16:01.270Z,605
2018-07-24T12:17:03.169Z,605.1
2018-07-24T12:18:05.067Z,604.9
2018-07-24T12:19:07.246Z,605
2018-07-24T12:20:09.444Z,604.9
2018-07-24T12:21:11.620Z,605
2018-07-24T12:22:14.078Z,605.3
2018-07-24T12:23:16.543Z,605.9
2018-07-24T12:24:19.035Z,605.7
2018-07-24T12:25:21.201Z,605.5
2018-07-24T12:26:23.670Z,605.9
2018-07-24T12:27:26.127Z,605.2
2018-07-24T12:28:28.587Z,605.9
2018-07-24T12:29:31.043Z,605.7
2018-07-24T12:30:33.507Z,605.2
2018-07-24T12:31:36.019Z,605.7
2018-07-24T12:32:38.165Z,605.6
2018-07-24T12:33:40.341Z,605.7
2018-07-24T12:34:42.820Z,605.4
2018-07-24T12:35:45.237Z,605.5
2018-07-24T12:36:47.694Z,604.6
2018-07-24T12:37:50.158Z,605.1
2018-07-24T12:38:52.609Z,605.3
2018-07-24T12:39:55.071Z,605.3
2018-07-24T12:40:57.260Z,605.6
2018-07-24T12:41:59.703Z,605.2
2018-07-24T12:43:02.287Z,605.3
2018-07-24T12:44:04.470Z,605.2
2018-07-24T12:45:06.917Z,605.8
2018-07-24T12:46:09.137Z,606.3
2018-07-24T12:47:11.601Z,606.1
2018-07-24T12:48:14.047Z,606.2
2018-07-24T12:49:16.502Z,606.2
2018-07-24T12:50:18.943Z,605.8
2018-07-24T12:51:21.131Z,606.5
2018-07-24T12:52:23.778Z,606.2
2018-07-24T12:53:25.384Z,606.1
2018-07-24T12:54:27.827Z,606.3
2018-07-24T12:55:30.288Z,606.6
2018-07-24T12:56:32.464Z,606.4
2018-07-24T12:57:34.648Z,606.6
2018-07-24T12:58:36.824Z,606.5
2018-07-24T12:59:38.706Z,606.8
2018-07-24T13:00:41.155Z,606.5
2018-07-24T13:01:43.626Z,606.3
2018-07-24T13:02:46.121Z,606
2018-07-24T13:03:48.567Z,605.6
2018-07-24T13:04:50.749Z,605.7
2018-07-24T13:05:53.206Z,606.9
2018-07-24T13:06:55.394Z,606.2
2018-07-24T13:07:57.576Z,606
2018-07-24T13:09:00.052Z,606.2
2018-07-24T13:10:02.853Z,606.3
2018-07-24T13:11:05.721Z,606.7
2018-07-24T13:12:08.002Z,606.7
2018-07-24T13:13:09.926Z,606.6
2018-07-24T13:14:12.106Z,606.5
2018-07-24T13:15:14.264Z,606.9
2018-07-24T13:16:16.176Z,606.6
2018-07-24T13:17:18.066Z,607
2018-07-24T13:18:20.234Z,606.8
2018-07-24T13:19:22.395Z,607
2018-07-24T13:20:24.856Z,607
2018-07-24T13:21:27.308Z,606.8
2018-07-24T13:22:29.496Z,607.3
2018-07-24T13:23:31.956Z,607
2018-07-24T13:24:33.965Z,607.2
2018-07-24T13:25:36.146Z,607.1
2018-07-24T13:26:38.315Z,607.2
2018-07-24T13:27:40.495Z,607.5
2018-07-24T13:28:42.946Z,607.8